• Join FlightAware (Why Join?)
  • Login
  • US Flag 
06:32AM EDT


 

Airport Tracker/Info


-or-


 

Live Flight TrackerFlight Track Log ✈ UAL326 ✈ 14-Jul-2013 ✈ KPHX - KIAH

Flight Track Log - Related Links

Times and Time Zones

All times are in EDT time to prevent confusion due to time zone crossing. See the UAL326 flight status page for this flight to view local times or setup timezone preferences in your user account.

Time Position Orientation Groundspeed Altitude Reporting Facility
EDT Latitude Longitude Course Direction KTS MPH feet Rate Location/Type
06:12PM 33.4333 -112.0333 257° West 171 197 2,100  Level Phoenix TRACON
06:13PM 33.4167 -112.1167 257° West 207 238 3,300 1,140 Climbing Phoenix TRACON
06:14PM 33.3667 -112.1833 228° Southwest 282 325 4,700 1,860 Climbing Phoenix TRACON
06:16PM 33.3008 -112.1550 160° South 290 334 7,300 2,520 Climbing Albuquerque Center
06:17PM 33.2806 -112.0622 105° East 292 336 10,100 1,920 Climbing Albuquerque Center
06:18PM 33.2642 -111.9631 101° East 306 352 11,300 1,740 Climbing Albuquerque Center
06:19PM 33.2389 -111.8228 102° East 359 413 13,700 2,340 Climbing Albuquerque Center
06:20PM 33.2200 -111.7064 101° East 358 412 16,100 2,220 Climbing Albuquerque Center
06:21PM 33.1975 -111.5861 103° East 365 420 18,300 2,340 Climbing Albuquerque Center
06:22PM 33.1667 -111.4669 107° East 386 444 21,000 2,460 Climbing Albuquerque Center
06:23PM 33.1389 -111.3431 105° East 387 445 23,400 1,980 Climbing Albuquerque Center
06:24PM 33.1078 -111.2122 106° East 409 471 25,100 1,680 Climbing Albuquerque Center
06:25PM 33.0553 -111.0556 112° Southeast 428 493 26,900 1,380 Climbing Albuquerque Center
06:26PM 32.9850 -110.9400 126° Southeast 430 495 28,000 1,020 Climbing Albuquerque Center
06:27PM 32.9025 -110.8356 133° Southeast 432 497 29,100 960 Climbing Albuquerque Center
06:28PM 32.8206 -110.7286 132° Southeast 437 503 30,000 720 Climbing Albuquerque Center
06:29PM 32.7378 -110.6214 133° Southeast 440 506 30,700 840 Climbing Albuquerque Center
06:30PM 32.6547 -110.5100 132° Southeast 447 514 31,800 1,140 Climbing Albuquerque Center
06:31PM 32.5744 -110.4000 131° Southeast 444 511 33,100 1,260 Climbing Albuquerque Center
06:32PM 32.5006 -110.2533 121° Southeast 436 502 34,400 900 Climbing Albuquerque Center
06:33PM 32.4631 -110.1175 108° East 436 502 35,000 240 Climbing Albuquerque Center
06:34PM 32.4414 -109.9731 100° East 444 511 35,000  Level Albuquerque Center
06:35PM 32.4200 -109.8303 100° East 445 512 35,000  Level Albuquerque Center
06:36PM 32.4000 -109.6958 100° East 445 512 35,000 -60 Level Albuquerque Center
06:37PM 32.3714 -109.5236 101° East 446 513 34,900  Descending Albuquerque Center
06:38PM 32.3483 -109.3806 101° East 445 512 35,000  Climbing Albuquerque Center
06:39PM 32.3261 -109.2375 100° East 445 512 34,900  Descending Albuquerque Center
06:40PM 32.3031 -109.0936 101° East 446 513 35,000  Climbing Albuquerque Center
06:41PM 32.2794 -108.9508 101° East 445 512 35,000 -60 Level Albuquerque Center
06:42PM 32.2567 -108.8072 101° East 446 513 34,900  Descending Albuquerque Center
06:43PM 32.2253 -108.6381 102° East 450 518 35,000  Climbing Albuquerque Center
06:44PM 32.2008 -108.4914 101° East 449 517 35,000  Level Albuquerque Center
06:45PM 32.1792 -108.3486 100° East 446 513 35,000  Level Albuquerque Center
06:46PM 32.1558 -108.2056 101° East 447 514 35,000  Level Albuquerque Center
06:47PM 32.1306 -108.0606 102° East 450 518 35,000  Level Albuquerque Center
06:48PM 32.1067 -107.9175 101° East 448 516 35,000 -60 Level Albuquerque Center
06:49PM 32.0822 -107.7744 101° East 448 516 34,900  Descending Albuquerque Center
06:50PM 32.0572 -107.6317 102° East 449 517 35,000  Climbing Albuquerque Center
06:52PM 32.0283 -107.4600 101° East 449 517 35,000 -60 Level Albuquerque Center
06:53PM 32.0033 -107.3178 102° East 448 516 34,900  Descending Albuquerque Center
06:54PM 31.9786 -107.1733 101° East 452 520 35,000  Climbing Albuquerque Center
06:55PM 31.9525 -107.0297 102° East 453 521 35,000  Level Albuquerque Center
06:56PM 31.9269 -106.8867 102° East 451 519 35,000 -60 Level Albuquerque Center
06:57PM 31.9008 -106.7461 102° East 445 512 34,900  Descending Albuquerque Center
06:58PM 31.8747 -106.6039 102° East 446 513 35,000  Climbing Albuquerque Center
06:59PM 31.8453 -106.4306 101° East 458 527 35,000  Level Albuquerque Center
07:00PM 31.8175 -106.2853 103° East 457 526 35,000  Level Albuquerque Center
07:01PM 31.7817 -106.1411 106° East 463 533 35,000 -60 Level Albuquerque Center
07:02PM 31.7458 -106.0006 107° East 452 520 34,900  Descending Albuquerque Center
07:03PM 31.7097 -105.8583 107° East 453 521 35,000  Climbing Albuquerque Center
07:04PM 31.6736 -105.7147 106° East 457 526 35,000  Level Albuquerque Center
07:05PM 31.6378 -105.5725 106° East 455 524 35,000 -60 Level Albuquerque Center
07:06PM 31.6014 -105.4297 107° East 456 525 34,900 -60 Descending Albuquerque Center
07:07PM 31.5661 -105.2881 106° East 454 522 34,900  Level Albuquerque Center
07:08PM 31.5242 -105.1183 106° East 451 519 34,900  Level Albuquerque Center
07:09PM 31.4872 -104.9756 107° East 454 522 35,000  Climbing Albuquerque Center
07:10PM 31.4497 -104.8319 107° East 458 527 35,000  Level Albuquerque Center
07:11PM 31.4128 -104.6886 107° East 458 527 35,000  Level Albuquerque Center
07:12PM 31.3758 -104.5458 107° East 458 527 35,000 -60 Level Albuquerque Center
07:13PM 31.3389 -104.4039 107° East 456 525 34,900  Descending Albuquerque Center
07:14PM 31.3019 -104.2614 107° East 457 526 35,000  Climbing Albuquerque Center
07:15PM 31.2633 -104.1178 107° East 461 531 35,000  Level Albuquerque Center
07:16PM 31.2247 -103.9747 107° East 461 531 35,000  Level Albuquerque Center
07:17PM 31.1869 -103.8333 107° East 460 529 35,000 -60 Level Albuquerque Center
07:18PM 31.1453 -103.6864 108° East 462 532 34,900 -60 Descending Albuquerque Center
07:19PM 31.0975 -103.5164 108° East 462 532 34,900  Level Albuquerque Center
07:20PM 31.0594 -103.3744 107° East 462 532 34,900  Level Albuquerque Center
07:21PM 31.0203 -103.2325 108° East 463 533 35,000  Climbing Albuquerque Center
07:22PM 30.9806 -103.0931 108° East 460 529 35,000  Level Albuquerque Center
07:23PM 30.9436 -102.9519 107° East 458 527 35,000  Level Albuquerque Center
07:24PM 30.9331 -102.8047 95° East 460 529 35,000  Level Albuquerque Center
07:25PM 30.9303 -102.6597 91° East 453 521 35,000 -60 Level Albuquerque Center
07:26PM 30.9267 -102.5144 92° East 453 521 34,900 -60 Descending Albuquerque Center
07:27PM 30.9231 -102.3417 91° East 451 519 34,900  Level Albuquerque Center
07:29PM 30.9197 -102.1683 91° East 450 518 35,000  Climbing Houston Center
07:30PM 30.9158 -102.0242 92° East 450 518 35,000  Level Houston Center
07:31PM 30.9133 -101.8808 91° East 449 517 35,000 -60 Level Houston Center
07:32PM 30.9097 -101.7378 92° East 447 514 34,900 -60 Descending Houston Center
07:33PM 30.9044 -101.5786 92° East 443 510 34,900  Level Houston Center
07:34PM 30.9014 -101.4344 91° East 445 512 34,900  Level Houston Center
07:35PM 30.8972 -101.2892 92° East 448 516 35,000  Climbing Houston Center
07:36PM 30.8925 -101.1428 92° East 451 519 35,000  Level Houston Center
07:37PM 30.8889 -100.9944 92° East 455 524 35,000 -60 Level Houston Center
07:38PM 30.8822 -100.8169 92° East 458 527 34,900  Descending Houston Center
07:39PM 30.8769 -100.6667 92° East 463 533 35,000  Climbing Houston Center
07:40PM 30.8719 -100.5169 92° East 462 532 35,000  Level Houston Center
07:41PM 30.8658 -100.3669 93° East 463 533 35,000 -60 Level Houston Center
07:42PM 30.8606 -100.2175 92° East 462 532 34,900 -60 Descending Houston Center
07:43PM 30.8556 -100.0672 92° East 465 535 34,900  Level Houston Center
07:44PM 30.8497 -99.9156 93° East 468 539 35,000  Climbing Houston Center
07:45PM 30.8428 -99.7647 93° East 468 539 34,900  Descending Houston Center
07:46PM 30.8347 -99.5831 93° East 468 539 35,000  Climbing Houston Center
07:47PM 30.8278 -99.4331 93° East 464 534 34,900 -60 Descending Houston Center
07:48PM 30.8217 -99.2844 93° East 461 531 34,900  Level Houston Center
07:49PM 30.8136 -99.1464 94° East 460 529 35,000  Climbing Houston Center
07:50PM 30.8064 -98.9706 93° East 460 529 35,000  Level Houston Center
07:51PM 30.7975 -98.8206 94° East 462 532 35,000  Level Houston Center
07:52PM 30.7989 -98.6703 89° East 462 532 35,000  Level Houston Center
07:53PM 30.8025 -98.5203 88° East 460 529 35,000  Level Houston Center
07:54PM 30.8050 -98.3708 89° East 461 531 35,000  Level Houston Center
07:55PM 30.8075 -98.2192 89° East 463 533 35,000  Level Houston Center
07:56PM 30.8094 -98.0689 89° East 462 532 35,000  Level Houston Center
07:57PM 30.8119 -97.9167 89° East 467 537 35,000  Level Houston Center
07:58PM 30.8139 -97.7619 89° East 472 543 35,000  Level Houston Center
07:59PM 30.8153 -97.5833 89° East 472 543 35,000  Level Houston Center
08:00PM 30.8158 -97.4311 90° East 471 542 35,000 -960 Level Houston Center
08:01PM 30.8169 -97.2772 89° East 480 552 33,100 -2,400 Descending Houston Center
08:03PM 30.7936 -97.1239 100° East 487 560 30,100 -2,580 Descending Houston Center
08:04PM 30.7550 -96.9753 107° East 480 552 27,900 -2,100 Descending Houston Center
08:05PM 30.7161 -96.8333 108° East 461 531 25,800 -2,520 Descending Houston Center
08:06PM 30.6800 -96.6958 107° East 446 513 22,700 -2,340 Descending Houston Center
08:07PM 30.6389 -96.5422 107° East 426 490 21,100 -1,620 Descending Houston Center
08:08PM 30.6058 -96.4183 107° East 403 464 19,400 -1,680 Descending Houston Center
08:09PM 30.5728 -96.2978 108° East 389 448 17,700 -1,680 Descending Houston Center
08:10PM 30.5403 -96.1789 108° East 384 442 16,000 -1,860 Descending Houston Center
08:11PM 30.5142 -96.0836 108° East 364 419 14,300 -1,440 Descending Houston Center
08:12PM 30.4808 -95.9606 107° East 360 414 13,100 -1,140 Descending Houston Center
08:13PM 30.4467 -95.8614 112° Southeast 355 409 12,000 -600 Descending Houston Center
08:14PM 30.3725 -95.7803 137° Southeast 321 369 12,000 -420 Level Houston Center
08:15PM 30.3075 -95.7106 137° Southeast 314 361 11,200 -1,080 Descending Houston Center
08:16PM 30.2406 -95.6411 138° Southeast 308 354 9,800 -1,320 Descending Houston Center
08:17PM 30.1803 -95.5781 138° Southeast 296 341 8,500 -1,320 Descending Houston Center
08:18PM 30.1172 -95.5106 137° Southeast 290 334 7,000 -780 Descending Houston Center
08:19PM 30.1064 -95.4322 99° East 252 290 7,000 -600 Level Houston Center
08:20PM 30.1058 -95.3575 90° East 231 266 6,000 -540 Descending Houston Center
08:21PM 30.1047 -95.2781 91° East 229 264 6,000 -600 Level Houston Center
08:22PM 30.0919 -95.2069 102° East 225 259 4,900 -1,140 Descending Houston Center
08:23PM 30.0731 -95.1394 108° East 214 246 3,700 -960 Descending Houston Center
08:24PM 30.0364 -95.1294 167° South 187 215 3,000 -780 Descending Houston Center
08:25PM 30.0144 -95.1875 246° West 196 226 2,200 -840 Descending Houston Center